Time;durP1;ratioP1;P1;durP2;ratioP2;P2;SDS_P1;SDS_P2;PMS_P1;PMS_P2;Temp;Humidity;BMP_temperature;BMP_pressure;BME280_temperature;BME280_humidity;BME280_pressure;Samples;Min_cycle;Max_cycle;Signal;HPM_P1;HPM_P2
2022/01/05 00:01:56;;;;;;;2.40;1.93;;;;;;;;;;5054235;28;20442;-76
2022/01/05 00:04:23;;;;;;;1.83;1.83;;;;;;;;;;5052480;28;20462;-77
2022/01/05 00:06:50;;;;;;;1.97;1.83;;;;;;;;;;5052133;28;20554;-77
2022/01/05 00:09:19;;;;;;;2.00;1.90;;;;;;;;;;5048921;28;20427;-78
2022/01/05 00:11:46;;;;;;;2.20;2.10;;;;;;;;;;5037944;28;20483;-77
2022/01/05 00:14:13;;;;;;;1.90;1.83;;;;;;;;;;5031446;28;20466;-76
2022/01/05 00:16:40;;;;;;;1.67;1.60;;;;;;;;;;5039443;28;20470;-78
2022/01/05 00:19:07;;;;;;;1.67;1.57;;;;;;;;;;5051701;28;20449;-77
2022/01/05 00:21:34;;;;;;;1.10;1.10;;;;;;;;;;5050962;28;20492;-77
2022/01/05 00:24:01;;;;;;;1.20;1.20;;;;;;;;;;5051622;28;20507;-77
2022/01/05 00:26:29;;;;;;;1.40;1.40;;;;;;;;;;5051606;28;20822;-77
2022/01/05 00:28:56;;;;;;;1.20;1.20;;;;;;;;;;5051866;28;20566;-77
2022/01/05 00:31:24;;;;;;;1.40;1.40;;;;;;;;;;5051443;28;20473;-77
2022/01/05 00:33:51;;;;;;;1.20;1.20;;;;;;;;;;5051180;28;20446;-76
2022/01/05 00:36:18;;;;;;;1.10;1.10;;;;;;;;;;5051659;28;20470;-77
2022/01/05 00:38:45;;;;;;;1.70;1.30;;;;;;;;;;5051732;28;20442;-76
2022/01/05 00:41:12;;;;;;;1.23;1.23;;;;;;;;;;5051165;28;20941;-77
2022/01/05 00:43:40;;;;;;;1.27;1.27;;;;;;;;;;5051458;28;20445;-76
2022/01/05 00:46:07;;;;;;;1.20;1.20;;;;;;;;;;5050880;28;20461;-77
2022/01/05 00:48:35;;;;;;;1.20;1.20;;;;;;;;;;5051432;28;20437;-77
2022/01/05 00:51:03;;;;;;;2.00;1.30;;;;;;;;;;5051198;28;20561;-76
2022/01/05 00:53:30;;;;;;;1.20;1.10;;;;;;;;;;5051273;28;20445;-76
2022/01/05 00:55:57;;;;;;;1.00;1.00;;;;;;;;;;5050971;28;20469;-77
2022/01/05 00:58:24;;;;;;;0.80;0.80;;;;;;;;;;5051399;28;20491;-77
2022/01/05 01:00:53;;;;;;;1.00;1.00;;;;;;;;;;5051514;28;20195;-79
2022/01/05 01:03:20;;;;;;;1.10;1.10;;;;;;;;;;5050495;28;20446;-75
2022/01/05 01:05:47;;;;;;;1.00;1.00;;;;;;;;;;5051198;28;20433;-79
2022/01/05 01:08:14;;;;;;;0.90;0.90;;;;;;;;;;5050650;28;20776;-77
2022/01/05 01:10:41;;;;;;;2.60;1.10;;;;;;;;;;5051043;28;20471;-77
2022/01/05 01:13:08;;;;;;;1.10;1.10;;;;;;;;;;5050581;28;20909;-76
2022/01/05 01:15:35;;;;;;;0.83;0.83;;;;;;;;;;5050971;28;20449;-77
2022/01/05 01:18:04;;;;;;;1.00;1.00;;;;;;;;;;5050738;28;20453;-76
2022/01/05 01:20:31;;;;;;;1.10;1.10;;;;;;;;;;5050945;28;20832;-78
2022/01/05 01:22:58;;;;;;;0.80;0.80;;;;;;;;;;5050981;28;20430;-78
2022/01/05 01:25:25;;;;;;;1.00;1.00;;;;;;;;;;5051007;28;20446;-77
2022/01/05 01:27:52;;;;;;;0.87;0.87;;;;;;;;;;5050732;28;20519;-77
2022/01/05 01:30:19;;;;;;;0.80;0.80;;;;;;;;;;5050955;28;20450;-77
2022/01/05 01:32:46;;;;;;;1.00;1.00;;;;;;;;;;5051918;28;20997;-77
2022/01/05 01:35:14;;;;;;;1.10;1.10;;;;;;;;;;5054419;28;20445;-79
2022/01/05 01:37:42;;;;;;;1.03;1.03;;;;;;;;;;5054522;28;20478;-77
2022/01/05 01:40:10;;;;;;;0.90;0.90;;;;;;;;;;5054111;28;20449;-77
2022/01/05 01:42:37;;;;;;;1.00;1.00;;;;;;;;;;5054471;28;20442;-77
2022/01/05 01:45:04;;;;;;;0.93;0.93;;;;;;;;;;5054360;28;20449;-76
2022/01/05 01:47:31;;;;;;;0.90;0.90;;;;;;;;;;5053881;28;20473;-77
2022/01/05 01:49:58;;;;;;;0.90;0.90;;;;;;;;;;5054272;28;20474;-77
2022/01/05 01:52:27;;;;;;;0.70;0.70;;;;;;;;;;5054249;28;20504;-78
2022/01/05 01:54:54;;;;;;;0.90;0.90;;;;;;;;;;5054167;28;20785;-77
2022/01/05 01:57:21;;;;;;;1.23;1.00;;;;;;;;;;5054307;28;20458;-77
2022/01/05 01:59:49;;;;;;;1.23;1.17;;;;;;;;;;5053960;28;20811;-77
2022/01/05 02:02:17;;;;;;;1.57;0.87;;;;;;;;;;5054024;28;20434;-77
2022/01/05 02:04:44;;;;;;;0.83;0.83;;;;;;;;;;5054215;28;20525;-77
2022/01/05 02:07:11;;;;;;;0.80;0.80;;;;;;;;;;5054025;28;20523;-77
2022/01/05 02:09:42;;;;;;;0.70;0.70;;;;;;;;;;5053931;28;20454;-78
2022/01/05 02:12:09;;;;;;;0.90;0.90;;;;;;;;;;5053707;28;20474;-78
2022/01/05 02:14:36;;;;;;;0.80;0.80;;;;;;;;;;5053889;28;20454;-76
2022/01/05 02:17:09;;;;;;;0.73;0.73;;;;;;;;;;5054205;28;20461;-78
2022/01/05 02:19:36;;;;;;;1.63;0.80;;;;;;;;;;5053951;28;20492;-77
2022/01/05 02:22:05;;;;;;;1.00;0.90;;;;;;;;;;5054259;28;20808;-77
2022/01/05 02:24:32;;;;;;;0.80;0.80;;;;;;;;;;5053983;28;20496;-77
2022/01/05 02:26:59;;;;;;;1.10;1.10;;;;;;;;;;5053887;28;20461;-78
2022/01/05 02:29:26;;;;;;;1.20;1.20;;;;;;;;;;5053703;28;21010;-77
2022/01/05 02:31:54;;;;;;;1.00;1.00;;;;;;;;;;5053587;28;20531;-78
2022/01/05 02:34:21;;;;;;;0.93;0.90;;;;;;;;;;5053490;28;20481;-77
2022/01/05 02:36:48;;;;;;;2.30;0.93;;;;;;;;;;5053803;28;20466;-76
2022/01/05 02:39:17;;;;;;;1.20;1.20;;;;;;;;;;5054843;28;20449;-77
2022/01/05 02:41:44;;;;;;;1.20;1.20;;;;;;;;;;5057701;28;20446;-78
2022/01/05 02:44:11;;;;;;;0.90;0.90;;;;;;;;;;5058443;28;20441;-76
2022/01/05 02:46:38;;;;;;;1.20;1.20;;;;;;;;;;5066630;28;20891;-75
2022/01/05 02:49:05;;;;;;;1.10;1.10;;;;;;;;;;5069405;28;20427;-75
2022/01/05 02:51:32;;;;;;;1.00;1.00;;;;;;;;;;5069720;28;20478;-76
2022/01/05 02:53:59;;;;;;;1.10;1.10;;;;;;;;;;5070274;28;20441;-75
2022/01/05 02:56:28;;;;;;;1.00;1.00;;;;;;;;;;5070434;28;20457;-77
2022/01/05 02:58:55;;;;;;;1.43;1.43;;;;;;;;;;5069103;28;20500;-76
2022/01/05 03:01:22;;;;;;;1.20;1.20;;;;;;;;;;5068431;28;20495;-77
2022/01/05 03:03:49;;;;;;;1.20;1.20;;;;;;;;;;5068493;28;20480;-76
2022/01/05 03:06:16;;;;;;;1.20;1.20;;;;;;;;;;5068701;28;20467;-76
2022/01/05 03:08:43;;;;;;;1.27;1.27;;;;;;;;;;5067513;28;20455;-77
2022/01/05 03:11:10;;;;;;;1.73;1.63;;;;;;;;;;5066951;28;20992;-77
2022/01/05 03:13:38;;;;;;;1.10;1.10;;;;;;;;;;5066419;28;20450;-76
2022/01/05 03:16:06;;;;;;;1.70;1.60;;;;;;;;;;5054955;28;21021;-77
2022/01/05 03:18:33;;;;;;;1.30;1.30;;;;;;;;;;5052713;28;20499;-77
2022/01/05 03:21:00;;;;;;;1.30;1.30;;;;;;;;;;5052790;28;20442;-77
2022/01/05 03:23:27;;;;;;;1.40;1.40;;;;;;;;;;5052593;28;20934;-76
2022/01/05 03:25:54;;;;;;;1.10;1.10;;;;;;;;;;5052850;28;20469;-77
2022/01/05 03:28:21;;;;;;;0.87;0.87;;;;;;;;;;5052661;28;20461;-77
2022/01/05 03:30:50;;;;;;;0.90;0.90;;;;;;;;;;5052240;28;20453;-77
2022/01/05 03:33:20;;;;;;;0.97;0.97;;;;;;;;;;5052262;28;20524;-77
2022/01/05 03:35:48;;;;;;;1.07;1.07;;;;;;;;;;5052389;28;20523;-78
2022/01/05 03:38:16;;;;;;;1.33;1.23;;;;;;;;;;5051225;28;20477;-77
2022/01/05 03:40:43;;;;;;;1.10;1.10;;;;;;;;;;5050724;28;20540;-77
2022/01/05 03:43:12;;;;;;;1.00;1.00;;;;;;;;;;5050471;28;20538;-76
2022/01/05 03:45:39;;;;;;;1.10;1.10;;;;;;;;;;5050570;28;20549;-78
2022/01/05 03:48:08;;;;;;;3.10;2.80;;;;;;;;;;5050177;28;20504;-76
2022/01/05 03:50:36;;;;;;;0.97;0.97;;;;;;;;;;5050490;28;20438;-78
2022/01/05 03:53:04;;;;;;;0.83;0.83;;;;;;;;;;5050211;28;20474;-77
2022/01/05 03:55:31;;;;;;;0.83;0.83;;;;;;;;;;5050527;28;20446;-78
2022/01/05 03:57:58;;;;;;;1.00;1.00;;;;;;;;;;5050118;28;20561;-76
2022/01/05 04:00:27;;;;;;;1.00;1.00;;;;;;;;;;5050326;28;20446;-76
2022/01/05 04:02:54;;;;;;;0.73;0.73;;;;;;;;;;5050001;28;20444;-79
2022/01/05 04:05:23;;;;;;;0.80;0.80;;;;;;;;;;5050277;28;20464;-76
2022/01/05 04:07:50;;;;;;;0.73;0.73;;;;;;;;;;5050190;28;20832;-76
2022/01/05 04:10:18;;;;;;;1.10;1.00;;;;;;;;;;5049898;28;20902;-76
2022/01/05 04:12:46;;;;;;;0.97;0.97;;;;;;;;;;5049849;28;20577;-76
2022/01/05 04:15:13;;;;;;;1.17;1.10;;;;;;;;;;5049923;28;20523;-76
2022/01/05 04:17:40;;;;;;;1.07;0.83;;;;;;;;;;5049731;28;20462;-77
2022/01/05 04:20:08;;;;;;;0.80;0.80;;;;;;;;;;5049881;28;20435;-77
2022/01/05 04:22:36;;;;;;;0.87;0.87;;;;;;;;;;5049424;28;20497;-77
2022/01/05 04:25:04;;;;;;;0.90;0.90;;;;;;;;;;5041619;28;20477;-77
2022/01/05 04:27:31;;;;;;;0.90;0.90;;;;;;;;;;5042375;28;20497;-77
2022/01/05 04:29:58;;;;;;;0.80;0.80;;;;;;;;;;5049691;28;20434;-78
2022/01/05 04:32:25;;;;;;;1.00;1.00;;;;;;;;;;5049524;28;20474;-78
2022/01/05 04:34:52;;;;;;;0.70;0.70;;;;;;;;;;5049296;28;20998;-76
2022/01/05 04:37:20;;;;;;;0.80;0.80;;;;;;;;;;5049536;28;20971;-77
2022/01/05 04:39:48;;;;;;;0.83;0.83;;;;;;;;;;5049575;28;20445;-77
2022/01/05 04:42:15;;;;;;;0.70;0.70;;;;;;;;;;5049507;28;20442;-76
2022/01/05 04:44:42;;;;;;;1.00;1.00;;;;;;;;;;5049237;28;20505;-76
2022/01/05 04:47:10;;;;;;;1.00;1.00;;;;;;;;;;5049159;28;20478;-77
2022/01/05 04:49:37;;;;;;;0.77;0.77;;;;;;;;;;5049566;28;20456;-76
2022/01/05 04:52:05;;;;;;;1.20;1.20;;;;;;;;;;5049230;28;20899;-76
2022/01/05 04:54:32;;;;;;;0.93;0.93;;;;;;;;;;5049247;28;20503;-76
2022/01/05 04:57:00;;;;;;;0.93;0.93;;;;;;;;;;5049096;28;20507;-76
2022/01/05 04:59:27;;;;;;;0.83;0.83;;;;;;;;;;5049260;28;21283;-76
2022/01/05 05:01:54;;;;;;;1.00;1.00;;;;;;;;;;5049466;28;20446;-76
2022/01/05 05:04:22;;;;;;;1.20;1.10;;;;;;;;;;5048928;28;21028;-76
2022/01/05 05:06:49;;;;;;;0.97;0.97;;;;;;;;;;5049357;28;20465;-77
2022/01/05 05:09:16;;;;;;;1.10;1.07;;;;;;;;;;5048046;28;20461;-77
2022/01/05 05:11:44;;;;;;;0.90;0.90;;;;;;;;;;5033331;28;20516;-76
2022/01/05 05:14:12;;;;;;;0.90;0.90;;;;;;;;;;5032972;28;20513;-76
2022/01/05 05:16:39;;;;;;;1.00;1.00;;;;;;;;;;5051381;28;20516;-76
2022/01/05 05:19:07;;;;;;;1.30;1.30;;;;;;;;;;5053279;28;20450;-78
2022/01/05 05:21:34;;;;;;;1.40;1.30;;;;;;;;;;5052839;28;20791;-76
2022/01/05 05:24:01;;;;;;;1.07;1.07;;;;;;;;;;5052728;28;20523;-76
2022/01/05 05:26:28;;;;;;;1.70;1.70;;;;;;;;;;5053236;28;20475;-78
2022/01/05 05:28:55;;;;;;;1.60;1.57;;;;;;;;;;5053232;28;20449;-77
2022/01/05 05:31:24;;;;;;;1.90;1.80;;;;;;;;;;5053289;28;20443;-77
2022/01/05 05:33:51;;;;;;;2.07;1.97;;;;;;;;;;5052729;28;20476;-78
2022/01/05 05:36:18;;;;;;;1.80;1.70;;;;;;;;;;5052868;28;20978;-78
2022/01/05 05:38:45;;;;;;;1.60;1.60;;;;;;;;;;5052807;28;20454;-77
2022/01/05 05:41:12;;;;;;;4.20;2.17;;;;;;;;;;5052765;28;21118;-77
2022/01/05 05:43:39;;;;;;;1.70;1.70;;;;;;;;;;5035516;28;20451;-78
2022/01/05 05:46:06;;;;;;;2.10;2.00;;;;;;;;;;5032562;28;20459;-76
2022/01/05 05:48:34;;;;;;;2.20;2.10;;;;;;;;;;5033202;28;20879;-76
2022/01/05 05:51:02;;;;;;;2.30;2.20;;;;;;;;;;5033092;28;20475;-76
2022/01/05 05:53:29;;;;;;;2.33;2.23;;;;;;;;;;5032574;28;20953;-76
2022/01/05 05:55:56;;;;;;;2.27;2.17;;;;;;;;;;5032834;28;20451;-77
2022/01/05 05:58:23;;;;;;;2.63;2.47;;;;;;;;;;5032944;28;20470;-77
2022/01/05 06:00:50;;;;;;;2.10;2.00;;;;;;;;;;5032948;28;20450;-76
2022/01/05 06:03:17;;;;;;;1.60;1.60;;;;;;;;;;5043356;28;20443;-76
2022/01/05 06:05:45;;;;;;;1.90;1.80;;;;;;;;;;5052917;28;20447;-76
2022/01/05 06:08:12;;;;;;;2.93;2.73;;;;;;;;;;5053526;28;20457;-77
2022/01/05 06:10:39;;;;;;;1.80;1.80;;;;;;;;;;5053872;28;20985;-76
2022/01/05 06:13:06;;;;;;;2.17;1.90;;;;;;;;;;5053800;28;20473;-78
2022/01/05 06:15:33;;;;;;;2.10;1.90;;;;;;;;;;5055483;28;20457;-77
2022/01/05 06:18:00;;;;;;;2.17;2.10;;;;;;;;;;5056557;28;20797;-77
2022/01/05 06:20:27;;;;;;;3.13;2.50;;;;;;;;;;5055585;28;20444;-77
2022/01/05 06:22:56;;;;;;;2.53;2.33;;;;;;;;;;5053066;28;20454;-76
2022/01/05 06:25:23;;;;;;;2.33;2.20;;;;;;;;;;5053121;28;20450;-77
2022/01/05 06:27:50;;;;;;;2.70;2.50;;;;;;;;;;5052563;28;20463;-75
2022/01/05 06:30:17;;;;;;;2.70;2.50;;;;;;;;;;5052306;28;20451;-77
2022/01/05 06:32:45;;;;;;;2.47;2.27;;;;;;;;;;5052105;28;20485;-77
2022/01/05 06:35:12;;;;;;;2.43;2.33;;;;;;;;;;5052204;28;20445;-76
2022/01/05 06:37:39;;;;;;;2.40;2.30;;;;;;;;;;5052360;28;20454;-75
2022/01/05 06:40:09;;;;;;;2.33;2.20;;;;;;;;;;5051925;28;20949;-78
2022/01/05 06:42:36;;;;;;;2.73;2.53;;;;;;;;;;5051718;28;20932;-76
2022/01/05 06:45:03;;;;;;;3.17;2.00;;;;;;;;;;5052078;28;20489;-77
2022/01/05 06:47:30;;;;;;;2.30;2.20;;;;;;;;;;5045837;28;21007;-76
2022/01/05 06:49:57;;;;;;;5.33;2.50;;;;;;;;;;5031777;28;20455;-78
2022/01/05 06:52:24;;;;;;;2.30;2.10;;;;;;;;;;5031792;28;20447;-77
2022/01/05 06:54:51;;;;;;;2.07;1.90;;;;;;;;;;5031819;28;20447;-75
2022/01/05 06:57:20;;;;;;;2.40;2.20;;;;;;;;;;5031972;28;20457;-77
2022/01/05 06:59:47;;;;;;;2.77;2.57;;;;;;;;;;5031678;28;20438;-78
2022/01/05 07:02:14;;;;;;;2.60;2.40;;;;;;;;;;5031895;28;20453;-76
2022/01/05 07:04:41;;;;;;;2.17;2.00;;;;;;;;;;5031270;28;20447;-75
2022/01/05 07:07:08;;;;;;;3.57;2.40;;;;;;;;;;5031640;28;20464;-76
2022/01/05 07:09:35;;;;;;;2.30;2.20;;;;;;;;;;5030958;28;20884;-77
2022/01/05 07:12:02;;;;;;;2.93;2.50;;;;;;;;;;5031172;28;20448;-77
2022/01/05 07:14:31;;;;;;;2.63;2.53;;;;;;;;;;5030718;28;20494;-79
2022/01/05 07:16:58;;;;;;;2.20;2.10;;;;;;;;;;5032467;28;20489;-77
2022/01/05 07:19:25;;;;;;;2.60;2.40;;;;;;;;;;5031450;28;20477;-77
2022/01/05 07:21:52;;;;;;;1.87;1.77;;;;;;;;;;5031717;28;20452;-77
2022/01/05 07:24:19;;;;;;;2.20;2.10;;;;;;;;;;5031457;28;20467;-75
2022/01/05 07:26:47;;;;;;;2.90;2.70;;;;;;;;;;5031745;28;20475;-76
2022/01/05 07:29:14;;;;;;;2.30;2.20;;;;;;;;;;5035072;28;20440;-78
2022/01/05 07:31:43;;;;;;;2.90;2.23;;;;;;;;;;5050016;28;20486;-80
2022/01/05 07:34:10;;;;;;;2.47;2.37;;;;;;;;;;5040561;28;20904;-78
2022/01/05 07:36:37;;;;;;;2.30;2.20;;;;;;;;;;5031524;28;20464;-77
2022/01/05 07:39:05;;;;;;;2.53;2.43;;;;;;;;;;5031070;28;20485;-77
2022/01/05 07:41:32;;;;;;;2.37;2.27;;;;;;;;;;5031139;28;20455;-77
2022/01/05 07:43:59;;;;;;;2.33;2.13;;;;;;;;;;5030721;28;20445;-77
2022/01/05 07:46:26;;;;;;;3.23;2.43;;;;;;;;;;5030703;28;21178;-78
2022/01/05 07:48:54;;;;;;;2.57;2.47;;;;;;;;;;5030860;28;20466;-77
2022/01/05 07:51:22;;;;;;;4.37;2.60;;;;;;;;;;5031211;28;21012;-77
2022/01/05 07:53:49;;;;;;;3.47;2.83;;;;;;;;;;5030503;28;20483;-78
2022/01/05 07:56:16;;;;;;;2.90;2.57;;;;;;;;;;5030751;28;20471;-79
2022/01/05 07:58:43;;;;;;;3.07;2.80;;;;;;;;;;5032128;28;20504;-77
2022/01/05 08:01:10;;;;;;;3.00;2.23;;;;;;;;;;5050356;28;20941;-76
2022/01/05 08:03:37;;;;;;;3.00;2.80;;;;;;;;;;5050474;28;20866;-77
2022/01/05 08:06:06;;;;;;;2.83;2.63;;;;;;;;;;5051271;28;20462;-76
2022/01/05 08:08:33;;;;;;;4.07;3.63;;;;;;;;;;5051171;28;20434;-77
2022/01/05 08:11:01;;;;;;;4.47;2.93;;;;;;;;;;5051507;28;20480;-77
2022/01/05 08:13:28;;;;;;;3.47;3.17;;;;;;;;;;5052408;28;20490;-77
2022/01/05 08:15:55;;;;;;;4.03;3.67;;;;;;;;;;5042334;28;21048;-77
2022/01/05 08:18:23;;;;;;;3.43;3.23;;;;;;;;;;5030713;28;20450;-77
2022/01/05 08:20:50;;;;;;;6.60;5.97;;;;;;;;;;5030789;28;20451;-77
2022/01/05 08:23:19;;;;;;;4.80;4.13;;;;;;;;;;5037223;28;20453;-77
2022/01/05 08:25:46;;;;;;;4.23;3.93;;;;;;;;;;5050046;28;20520;-75
2022/01/05 08:28:13;;;;;;;5.83;3.53;;;;;;;;;;5050412;28;20446;-77
2022/01/05 08:30:40;;;;;;;5.30;3.20;;;;;;;;;;5050607;28;20442;-77
2022/01/05 08:33:08;;;;;;;3.70;3.33;;;;;;;;;;5050295;28;20450;-77
2022/01/05 08:35:35;;;;;;;4.27;3.87;;;;;;;;;;5050267;28;20438;-77
2022/01/05 08:38:03;;;;;;;3.53;3.17;;;;;;;;;;5049905;28;20454;-76
2022/01/05 08:40:32;;;;;;;3.37;3.10;;;;;;;;;;5049499;28;20453;-77
2022/01/05 08:43:00;;;;;;;4.03;3.83;;;;;;;;;;5051720;28;20483;-78
2022/01/05 08:45:27;;;;;;;4.10;3.30;;;;;;;;;;5053980;28;20812;-76
2022/01/05 08:47:55;;;;;;;3.50;3.30;;;;;;;;;;5053669;28;20981;-76
2022/01/05 08:50:25;;;;;;;3.50;3.20;;;;;;;;;;5053691;28;20853;-77
2022/01/05 08:52:53;;;;;;;3.47;3.17;;;;;;;;;;5053726;28;20437;-77
2022/01/05 08:55:21;;;;;;;3.50;3.20;;;;;;;;;;5054124;28;20478;-76
2022/01/05 08:57:49;;;;;;;3.37;3.07;;;;;;;;;;5049811;28;20482;-78
2022/01/05 09:00:17;;;;;;;6.90;3.10;;;;;;;;;;5044953;28;20462;-76
2022/01/05 09:02:44;;;;;;;5.47;3.70;;;;;;;;;;5043044;28;20472;-76
2022/01/05 09:05:11;;;;;;;5.37;3.30;;;;;;;;;;5052193;28;20459;-77
2022/01/05 09:07:38;;;;;;;3.60;3.33;;;;;;;;;;5053296;28;20520;-77
2022/01/05 09:10:06;;;;;;;3.38;3.10;;;;;;;;;;5053506;28;20453;-77
2022/01/05 09:12:33;;;;;;;3.53;3.23;;;;;;;;;;5053184;28;20207;-75
2022/01/05 09:15:01;;;;;;;3.27;2.97;;;;;;;;;;5053333;28;20478;-77
2022/01/05 09:17:29;;;;;;;4.13;3.13;;;;;;;;;;5053427;28;20497;-76
2022/01/05 09:19:56;;;;;;;6.43;4.10;;;;;;;;;;5053462;28;20441;-77
2022/01/05 09:22:23;;;;;;;5.03;3.47;;;;;;;;;;5052996;28;20871;-77
2022/01/05 09:24:50;;;;;;;3.27;2.83;;;;;;;;;;5053351;28;20442;-77
2022/01/05 09:27:18;;;;;;;4.77;3.07;;;;;;;;;;5053487;28;21010;-77
2022/01/05 09:29:45;;;;;;;4.10;3.20;;;;;;;;;;5055325;28;20480;-78
2022/01/05 09:32:14;;;;;;;6.30;2.97;;;;;;;;;;5055160;28;20450;-76
2022/01/05 09:34:42;;;;;;;7.00;3.90;;;;;;;;;;5054736;28;21127;-77
2022/01/05 09:37:14;;;;;;;4.13;3.40;;;;;;;;;;5054453;28;20466;-76
2022/01/05 09:42:26;;;;;;;3.20;2.87;;;;;;;;;;5054938;28;20408;-77
2022/01/05 09:44:54;;;;;;;4.13;2.80;;;;;;;;;;5052823;28;20439;-77
2022/01/05 09:47:36;;;;;;;3.53;3.23;;;;;;;;;;5051175;28;20519;-78
2022/01/05 09:50:07;;;;;;;3.50;3.00;;;;;;;;;;5052852;28;20461;-77
2022/01/05 09:52:34;;;;;;;3.57;3.27;;;;;;;;;;5053247;28;20894;-77
2022/01/05 09:55:02;;;;;;;3.47;3.13;;;;;;;;;;5041699;28;20479;-76
2022/01/05 09:57:29;;;;;;;3.30;2.67;;;;;;;;;;5054015;28;20473;-77
2022/01/05 09:59:57;;;;;;;4.23;3.93;;;;;;;;;;5046852;28;20442;-77
2022/01/05 10:02:25;;;;;;;9.40;4.17;;;;;;;;;;5053068;28;20442;-76
2022/01/05 10:04:52;;;;;;;3.10;2.90;;;;;;;;;;5038829;28;20492;-78
2022/01/05 10:07:20;;;;;;;10.53;3.90;;;;;;;;;;5053553;28;20493;-77
2022/01/05 10:09:49;;;;;;;4.43;3.00;;;;;;;;;;5044351;28;20472;-77
2022/01/05 10:12:16;;;;;;;5.13;3.23;;;;;;;;;;5053975;28;20453;-76
2022/01/05 10:14:45;;;;;;;5.63;3.17;;;;;;;;;;5043859;28;20536;-77
2022/01/05 10:17:13;;;;;;;4.20;2.83;;;;;;;;;;5033858;28;20467;-76
2022/01/05 10:19:40;;;;;;;3.63;3.33;;;;;;;;;;5034796;28;20477;-77
2022/01/05 10:22:22;;;;;;;5.93;3.00;;;;;;;;;;5048835;28;20442;-77
2022/01/05 10:24:52;;;;;;;3.40;2.80;;;;;;;;;;5044641;28;20976;-77
2022/01/05 10:27:20;;;;;;;7.73;3.57;;;;;;;;;;5053709;28;20498;-77
2022/01/05 10:29:54;;;;;;;2.47;2.10;;;;;;;;;;5053218;28;20446;-78
2022/01/05 10:32:21;;;;;;;3.40;2.77;;;;;;;;;;5041929;28;20451;-78
2022/01/05 10:35:00;;;;;;;7.83;3.90;;;;;;;;;;5047267;28;20478;-77
2022/01/05 10:37:27;;;;;;;6.67;2.73;;;;;;;;;;5042307;28;20557;-77
2022/01/05 10:40:06;;;;;;;2.70;2.50;;;;;;;;;;5054664;28;20434;-77
2022/01/05 10:42:33;;;;;;;5.40;2.93;;;;;;;;;;5054193;28;20933;-76
2022/01/05 10:45:01;;;;;;;4.93;3.43;;;;;;;;;;5054416;28;20433;-76
2022/01/05 10:47:29;;;;;;;4.10;2.43;;;;;;;;;;5053915;28;20478;-78
2022/01/05 10:49:56;;;;;;;4.20;2.23;;;;;;;;;;5054380;28;20507;-77
2022/01/05 10:52:24;;;;;;;2.60;2.33;;;;;;;;;;5053314;28;20442;-77
2022/01/05 10:54:52;;;;;;;6.30;2.53;;;;;;;;;;5055301;28;20486;-77
2022/01/05 10:57:21;;;;;;;6.83;2.50;;;;;;;;;;5054639;28;20462;-78
2022/01/05 10:59:49;;;;;;;5.70;1.90;;;;;;;;;;5055482;28;20580;-77
2022/01/05 11:02:27;;;;;;;8.50;2.70;;;;;;;;;;5056399;28;20439;-78
2022/01/05 11:04:55;;;;;;;6.53;2.80;;;;;;;;;;5051288;28;20435;-78
2022/01/05 11:07:22;;;;;;;5.87;2.27;;;;;;;;;;5049885;28;20493;-78
2022/01/05 11:09:53;;;;;;;6.90;2.50;;;;;;;;;;5054735;28;20935;-79
2022/01/05 11:12:22;;;;;;;5.47;2.70;;;;;;;;;;5054511;28;20934;-79
2022/01/05 11:14:49;;;;;;;5.63;2.97;;;;;;;;;;5055803;28;20473;-78
2022/01/05 11:17:18;;;;;;;5.73;2.33;;;;;;;;;;5052708;28;21088;-77
2022/01/05 11:19:46;;;;;;;6.10;2.80;;;;;;;;;;5052891;28;20462;-78
2022/01/05 11:22:14;;;;;;;5.57;2.60;;;;;;;;;;5053869;28;20465;-79
2022/01/05 11:24:42;;;;;;;4.83;2.83;;;;;;;;;;5053641;28;20448;-78
2022/01/05 11:27:10;;;;;;;7.13;2.80;;;;;;;;;;5053433;28;20483;-78
2022/01/05 11:29:39;;;;;;;6.40;2.80;;;;;;;;;;5052529;28;20445;-77
2022/01/05 11:32:08;;;;;;;8.93;3.00;;;;;;;;;;5053001;28;20447;-77
2022/01/05 11:34:35;;;;;;;4.50;2.80;;;;;;;;;;5052498;28;20533;-77
2022/01/05 11:37:02;;;;;;;7.13;2.50;;;;;;;;;;5052720;28;20517;-77
2022/01/05 11:39:31;;;;;;;5.77;2.47;;;;;;;;;;5052231;28;20447;-77
2022/01/05 11:42:00;;;;;;;4.00;2.90;;;;;;;;;;5033013;28;20441;-77
2022/01/05 11:44:28;;;;;;;9.67;3.30;;;;;;;;;;5043131;28;20449;-77
2022/01/05 11:46:57;;;;;;;4.13;2.60;;;;;;;;;;5050195;28;20480;-77
2022/01/05 11:49:27;;;;;;;5.90;3.03;;;;;;;;;;5053640;28;20456;-77
2022/01/05 11:51:56;;;;;;;5.13;2.77;;;;;;;;;;5055348;28;20464;-77
2022/01/05 11:54:23;;;;;;;5.97;3.20;;;;;;;;;;5053332;28;20485;-77
2022/01/05 11:56:53;;;;;;;8.63;2.70;;;;;;;;;;5052945;28;20602;-77
2022/01/05 11:59:21;;;;;;;4.47;2.83;;;;;;;;;;5035268;28;20489;-77
2022/01/05 12:02:01;;;;;;;7.70;2.63;;;;;;;;;;5039235;28;20496;-77
2022/01/05 12:04:28;;;;;;;3.60;2.07;;;;;;;;;;5046941;28;21065;-78
2022/01/05 12:07:08;;;;;;;5.70;2.63;;;;;;;;;;5051801;28;20455;-77
2022/01/05 12:09:37;;;;;;;3.97;2.80;;;;;;;;;;5034576;28;20473;-77
2022/01/05 12:12:19;;;;;;;3.93;2.67;;;;;;;;;;5031742;28;20484;-78
2022/01/05 12:14:47;;;;;;;5.30;2.83;;;;;;;;;;5022972;28;20511;-78
2022/01/05 12:17:18;;;;;;;9.50;2.77;;;;;;;;;;5031360;28;20501;-77
2022/01/05 12:20:03;;;;;;;5.40;2.80;;;;;;;;;;5032234;28;20493;-77
2022/01/05 12:22:30;;;;;;;2.60;2.10;;;;;;;;;;5031680;28;20733;-77
2022/01/05 12:25:09;;;;;;;5.60;2.57;;;;;;;;;;5032475;28;20435;-77
2022/01/05 12:27:37;;;;;;;4.60;2.90;;;;;;;;;;5031997;28;21130;-77
2022/01/05 12:30:26;;;;;;;5.67;2.67;;;;;;;;;;5031874;28;20442;-78
2022/01/05 12:33:03;;;;;;;9.90;3.00;;;;;;;;;;5031518;28;20935;-76
2022/01/05 12:35:43;;;;;;;5.43;2.43;;;;;;;;;;5031331;28;20537;-76
2022/01/05 12:38:10;;;;;;;10.33;4.87;;;;;;;;;;5031679;28;20434;-77
2022/01/05 12:40:38;;;;;;;6.07;3.70;;;;;;;;;;5031275;28;20454;-76
2022/01/05 12:43:24;;;;;;;3.63;2.40;;;;;;;;;;5030963;28;21015;-77
2022/01/05 12:45:52;;;;;;;5.00;2.13;;;;;;;;;;5031110;28;20439;-77
2022/01/05 12:48:39;;;;;;;2.87;2.20;;;;;;;;;;5031092;28;20453;-76
2022/01/05 12:51:25;;;;;;;3.70;2.43;;;;;;;;;;5030310;28;20460;-79
2022/01/05 12:53:56;;;;;;;4.93;3.10;;;;;;;;;;5031256;28;20451;-78
2022/01/05 12:56:23;;;;;;;2.77;2.57;;;;;;;;;;5031354;28;20521;-76
2022/01/05 12:58:51;;;;;;;6.07;2.30;;;;;;;;;;5031428;28;20536;-76
2022/01/05 13:01:18;;;;;;;6.37;2.60;;;;;;;;;;5032195;28;20459;-77
2022/01/05 13:03:45;;;;;;;3.77;2.47;;;;;;;;;;5046145;28;20513;-78
2022/01/05 13:06:17;;;;;;;4.73;2.47;;;;;;;;;;5051502;28;20468;-77
2022/01/05 13:08:47;;;;;;;4.27;2.47;;;;;;;;;;5050975;28;20938;-77
2022/01/05 13:11:17;;;;;;;2.20;2.00;;;;;;;;;;5051342;28;20453;-76
2022/01/05 13:13:45;;;;;;;6.20;2.37;;;;;;;;;;5051316;28;20443;-77
2022/01/05 13:16:12;;;;;;;6.93;2.20;;;;;;;;;;5051106;28;21064;-77
2022/01/05 13:18:39;;;;;;;4.93;2.30;;;;;;;;;;5051536;28;20448;-76
2022/01/05 13:21:06;;;;;;;2.20;2.00;;;;;;;;;;5051313;28;20821;-76
2022/01/05 13:23:34;;;;;;;4.00;2.90;;;;;;;;;;5050705;28;20485;-77
2022/01/05 13:26:09;;;;;;;7.23;2.90;;;;;;;;;;5050998;28;20531;-77
2022/01/05 13:28:39;;;;;;;5.80;3.23;;;;;;;;;;5052829;28;20474;-78
2022/01/05 13:31:10;;;;;;;5.70;2.53;;;;;;;;;;5055071;28;20449;-77
2022/01/05 13:33:38;;;;;;;4.17;2.93;;;;;;;;;;5054948;28;20510;-77
2022/01/05 13:36:06;;;;;;;3.53;2.70;;;;;;;;;;5055295;28;20482;-77
2022/01/05 13:38:33;;;;;;;5.80;2.90;;;;;;;;;;5054944;28;20446;-77
2022/01/05 13:41:00;;;;;;;3.40;2.63;;;;;;;;;;5055903;28;20454;-78
2022/01/05 13:43:28;;;;;;;7.70;2.97;;;;;;;;;;5055164;28;20522;-77
2022/01/05 13:45:56;;;;;;;4.00;2.50;;;;;;;;;;5054765;28;20466;-77
2022/01/05 13:48:25;;;;;;;2.50;2.30;;;;;;;;;;5054226;28;20465;-78
2022/01/05 13:50:53;;;;;;;4.00;2.57;;;;;;;;;;5055014;28;20504;-77
2022/01/05 13:53:22;;;;;;;5.37;2.50;;;;;;;;;;5054810;28;20848;-78
2022/01/05 13:55:50;;;;;;;4.73;2.27;;;;;;;;;;5054173;28;20491;-77
2022/01/05 13:58:18;;;;;;;6.90;2.97;;;;;;;;;;5054936;28;20442;-78
2022/01/05 14:00:47;;;;;;;4.90;2.10;;;;;;;;;;5054275;28;20447;-76
2022/01/05 14:03:26;;;;;;;6.10;2.93;;;;;;;;;;5043764;28;20946;-78
2022/01/05 14:05:53;;;;;;;4.70;2.00;;;;;;;;;;5034460;28;20777;-77
2022/01/05 14:08:28;;;;;;;4.47;2.30;;;;;;;;;;5034530;28;20949;-78
2022/01/05 14:11:03;;;;;;;5.30;2.60;;;;;;;;;;5034479;28;20935;-79
2022/01/05 14:13:30;;;;;;;4.50;2.40;;;;;;;;;;5034793;28;20494;-78
2022/01/05 14:15:59;;;;;;;3.40;2.80;;;;;;;;;;5034414;28;20492;-77
2022/01/05 14:18:28;;;;;;;3.40;2.30;;;;;;;;;;5034366;28;20480;-79
2022/01/05 14:20:55;;;;;;;3.30;2.50;;;;;;;;;;5034534;28;20559;-77
2022/01/05 14:23:22;;;;;;;2.50;2.30;;;;;;;;;;5035078;28;20452;-78
2022/01/05 14:25:51;;;;;;;6.50;3.90;;;;;;;;;;5034221;28;20470;-78
2022/01/05 14:28:20;;;;;;;5.00;2.93;;;;;;;;;;5035032;28;20863;-78
2022/01/05 14:30:55;;;;;;;5.00;3.10;;;;;;;;;;5034343;28;20457;-77
2022/01/05 14:33:31;;;;;;;6.17;2.43;;;;;;;;;;5034386;28;20496;-78
2022/01/05 14:35:58;;;;;;;7.63;2.33;;;;;;;;;;5034231;28;20483;-79
2022/01/05 14:38:26;;;;;;;5.90;2.97;;;;;;;;;;5033756;28;20447;-77
2022/01/05 14:40:53;;;;;;;2.28;2.05;;;;;;;;;;5033691;28;20552;-77
2022/01/05 14:43:20;;;;;;;2.30;2.10;;;;;;;;;;5033477;28;20782;-77
2022/01/05 14:45:47;;;;;;;7.33;2.70;;;;;;;;;;5033586;28;20482;-77
2022/01/05 14:48:14;;;;;;;5.73;2.63;;;;;;;;;;5034050;28;20469;-78
2022/01/05 14:50:44;;;;;;;3.50;2.37;;;;;;;;;;5034271;28;20518;-78
2022/01/05 14:53:11;;;;;;;6.73;2.33;;;;;;;;;;5033893;28;20451;-78